Muir Army Air Field (Fort Indiantown Gap) Airport
KMUI : now visible

Airfield :











YOU CAN JOIN US ON...

 
LOGIN :

Register | Disclaimer

   EN    FR    IT 

 









Legend :    VFR   Marginal VFR   IFR   Intensive IFR   Very Intensive IFR
Visi :
Ceiling :
>= 8 km
>= 3000ft
5 to 8 km
1000 to 3000 ft
1500m to 5 km
500 to 1000 ft
800 to 1500m
200 to 500 ft
< 800m
< 200 ft
Symbols :   Thunderstorms  Fog  Heavy snow  Heavy precipitations  Wind > 20 kt







- Airport Elevation : 488 ft


KMUI - Muir Army Air Field (Fort Indiantown Gap)

CURRENT METAR :
  • 240556Z AUTO 21004KT 10SM CLR 20/18 A2989 RMK AO2 SLP122 60005 T02000178 10238 20199 55001

EXPIRED METARs :
  • 240456Z AUTO 22005KT 10SM FEW060 21/19 A2990 RMK AO2 DZB0359E10 SLP125 P0000 T02110185 402530144
  • 240410Z AUTO 00000KT 10SM FEW060 SCT095 20/19 A2989 RMK AO2 DZB0359E10 SLP122
  • 240359Z AUTO 00000KT 10SM -DZ FEW050 SCT100 20/19 A2990 RMK AO2 DZB59 SLP125
  • 240356Z AUTO 00000KT 10SM FEW050 SCT100 20/19 A2989 RMK AO2 SLP122 T02000190

TAF AMD TAF KMUI
Valid from the 24 at 01:00 until the 25 at 01:00 UTC


240120Z 2401/2501 25009KT 9999 SCT020 BKN050 QNH2980INS
TEMPO 2402/2405 27025G35KT 4800 -TSRAGR FEW010 OVC020CB
BECMG 2412/2413 32012G18KT 9999 FEW040 QNH2988INS
TEMPO 2415/2419 32015G30KT 520003
BECMG 2423/2424 34012KT 9999 FEW250 QNH2995INS TX25/2401Z TN15/2410Z LAST NO AMDS AFT 2405 NEXT 2411
KZNY FIR / North America



MET'MAP, your aeronautical weather chart ! - Copyright ORBIFLY December 2007 - Disclaimer

ORBIFLY MET'MAP TEAM :

Programming & Development : Alexandra Zaïnal
Concept & Development : Baudouin d'Aumeries
Co-Development & Prog : Marc-Olivier Méhu
Technical & hardware support : Manuel Goepfert

Contact : metmap@orbifly.com




SOURCES & CREDITS :

   NOAA       Earth
Advisory